sensor_id;sensor_type;location;lat;lon;timestamp;P1;durP1;ratioP1;P2;durP2;ratioP2
65202;SDS011;51788;45.124;38.966;2023-02-01T00:01:44;10.38;;;8.20;;
65202;SDS011;51788;45.124;38.966;2023-02-01T00:04:10;9.82;;;7.40;;
65202;SDS011;51788;45.124;38.966;2023-02-01T00:06:36;12.07;;;8.02;;
65202;SDS011;51788;45.124;38.966;2023-02-01T00:09:03;13.43;;;8.82;;
65202;SDS011;51788;45.124;38.966;2023-02-01T00:11:29;16.70;;;10.23;;
65202;SDS011;51788;45.124;38.966;2023-02-01T00:13:54;13.82;;;10.43;;
65202;SDS011;51788;45.124;38.966;2023-02-01T00:16:23;15.68;;;11.60;;
65202;SDS011;51788;45.124;38.966;2023-02-01T00:18:51;16.60;;;9.40;;
65202;SDS011;51788;45.124;38.966;2023-02-01T00:21:21;10.70;;;8.48;;
65202;SDS011;51788;45.124;38.966;2023-02-01T00:23:47;12.30;;;7.95;;
65202;SDS011;51788;45.124;38.966;2023-02-01T00:26:14;12.40;;;8.02;;
65202;SDS011;51788;45.124;38.966;2023-02-01T00:28:42;11.45;;;8.48;;
65202;SDS011;51788;45.124;38.966;2023-02-01T00:31:09;13.57;;;9.57;;
65202;SDS011;51788;45.124;38.966;2023-02-01T00:33:34;13.98;;;9.15;;
65202;SDS011;51788;45.124;38.966;2023-02-01T00:36:02;18.48;;;10.45;;
65202;SDS011;51788;45.124;38.966;2023-02-01T00:38:29;17.45;;;11.82;;
65202;SDS011;51788;45.124;38.966;2023-02-01T00:43:44;35.15;;;13.43;;
65202;SDS011;51788;45.124;38.966;2023-02-01T00:46:11;28.70;;;14.35;;
65202;SDS011;51788;45.124;38.966;2023-02-01T00:48:39;25.15;;;13.63;;
65202;SDS011;51788;45.124;38.966;2023-02-01T00:51:06;25.48;;;12.57;;
65202;SDS011;51788;45.124;38.966;2023-02-01T00:53:34;21.10;;;10.20;;
65202;SDS011;51788;45.124;38.966;2023-02-01T00:56:00;22.98;;;12.88;;
65202;SDS011;51788;45.124;38.966;2023-02-01T00:58:27;26.50;;;14.05;;
65202;SDS011;51788;45.124;38.966;2023-02-01T01:01:00;27.75;;;13.52;;
65202;SDS011;51788;45.124;38.966;2023-02-01T01:03:28;25.80;;;13.43;;
65202;SDS011;51788;45.124;38.966;2023-02-01T01:05:58;25.50;;;13.77;;
65202;SDS011;51788;45.124;38.966;2023-02-01T01:08:26;32.70;;;14.55;;
65202;SDS011;51788;45.124;38.966;2023-02-01T01:10:52;31.25;;;14.02;;
65202;SDS011;51788;45.124;38.966;2023-02-01T01:13:18;31.30;;;14.68;;
65202;SDS011;51788;45.124;38.966;2023-02-01T01:15:45;18.73;;;11.35;;
65202;SDS011;51788;45.124;38.966;2023-02-01T01:18:11;21.73;;;11.15;;
65202;SDS011;51788;45.124;38.966;2023-02-01T01:20:38;22.95;;;12.82;;
65202;SDS011;51788;45.124;38.966;2023-02-01T01:23:06;28.77;;;14.07;;
65202;SDS011;51788;45.124;38.966;2023-02-01T01:25:36;24.38;;;13.40;;
65202;SDS011;51788;45.124;38.966;2023-02-01T01:28:03;22.85;;;13.43;;
65202;SDS011;51788;45.124;38.966;2023-02-01T01:30:29;20.00;;;11.88;;
65202;SDS011;51788;45.124;38.966;2023-02-01T01:32:55;23.52;;;12.32;;
65202;SDS011;51788;45.124;38.966;2023-02-01T01:35:21;20.92;;;10.63;;
65202;SDS011;51788;45.124;38.966;2023-02-01T01:37:47;24.58;;;11.88;;
65202;SDS011;51788;45.124;38.966;2023-02-01T01:40:13;19.00;;;11.35;;
65202;SDS011;51788;45.124;38.966;2023-02-01T01:42:40;14.15;;;8.68;;
65202;SDS011;51788;45.124;38.966;2023-02-01T01:47:56;15.85;;;6.63;;
65202;SDS011;51788;45.124;38.966;2023-02-01T01:50:38;11.27;;;8.10;;
65202;SDS011;51788;45.124;38.966;2023-02-01T01:53:07;12.90;;;7.65;;
65202;SDS011;51788;45.124;38.966;2023-02-01T01:55:36;15.25;;;8.73;;
65202;SDS011;51788;45.124;38.966;2023-02-01T01:58:07;20.10;;;9.50;;
65202;SDS011;51788;45.124;38.966;2023-02-01T02:00:37;26.83;;;10.30;;
65202;SDS011;51788;45.124;38.966;2023-02-01T02:03:07;24.17;;;6.53;;
65202;SDS011;51788;45.124;38.966;2023-02-01T02:05:46;16.98;;;8.35;;
65202;SDS011;51788;45.124;38.966;2023-02-01T02:08:14;13.77;;;8.35;;
65202;SDS011;51788;45.124;38.966;2023-02-01T02:10:42;19.20;;;8.13;;
65202;SDS011;51788;45.124;38.966;2023-02-01T02:13:34;18.00;;;8.88;;
65202;SDS011;51788;45.124;38.966;2023-02-01T02:22:05;24.77;;;12.02;;
65202;SDS011;51788;45.124;38.966;2023-02-01T02:24:55;41.65;;;11.18;;
65202;SDS011;51788;45.124;38.966;2023-02-01T02:36:12;26.30;;;8.70;;
65202;SDS011;51788;45.124;38.966;2023-02-01T02:44:21;10.23;;;5.60;;
65202;SDS011;51788;45.124;38.966;2023-02-01T02:47:51;17.80;;;5.40;;
65202;SDS011;51788;45.124;38.966;2023-02-01T02:53:00;11.20;;;8.15;;
65202;SDS011;51788;45.124;38.966;2023-02-01T02:55:51;15.50;;;7.18;;
65202;SDS011;51788;45.124;38.966;2023-02-01T02:58:37;20.13;;;7.20;;
65202;SDS011;51788;45.124;38.966;2023-02-01T03:01:21;14.45;;;7.15;;
65202;SDS011;51788;45.124;38.966;2023-02-01T03:04:06;9.75;;;7.13;;
65202;SDS011;51788;45.124;38.966;2023-02-01T03:06:39;7.47;;;5.60;;
65202;SDS011;51788;45.124;38.966;2023-02-01T03:09:06;13.50;;;6.32;;
65202;SDS011;51788;45.124;38.966;2023-02-01T03:11:59;24.05;;;6.90;;
65202;SDS011;51788;45.124;38.966;2023-02-01T03:14:53;11.40;;;6.60;;
65202;SDS011;51788;45.124;38.966;2023-02-01T03:17:25;23.33;;;6.32;;
65202;SDS011;51788;45.124;38.966;2023-02-01T03:19:56;15.02;;;7.70;;
65202;SDS011;51788;45.124;38.966;2023-02-01T03:22:27;34.50;;;8.70;;
65202;SDS011;51788;45.124;38.966;2023-02-01T03:25:14;7.57;;;5.40;;
65202;SDS011;51788;45.124;38.966;2023-02-01T03:30:21;12.82;;;8.48;;
65202;SDS011;51788;45.124;38.966;2023-02-01T03:32:52;45.45;;;6.50;;
65202;SDS011;51788;45.124;38.966;2023-02-01T03:38:01;9.68;;;6.65;;
65202;SDS011;51788;45.124;38.966;2023-02-01T03:40:36;28.70;;;8.13;;
65202;SDS011;51788;45.124;38.966;2023-02-01T03:43:05;19.35;;;6.95;;
65202;SDS011;51788;45.124;38.966;2023-02-01T03:45:40;8.82;;;6.90;;
65202;SDS011;51788;45.124;38.966;2023-02-01T03:48:10;25.60;;;5.88;;
65202;SDS011;51788;45.124;38.966;2023-02-01T03:50:38;18.75;;;7.45;;
65202;SDS011;51788;45.124;38.966;2023-02-01T03:53:11;33.85;;;6.35;;
65202;SDS011;51788;45.124;38.966;2023-02-01T03:55:44;42.05;;;7.95;;
65202;SDS011;51788;45.124;38.966;2023-02-01T03:58:12;17.75;;;7.43;;
65202;SDS011;51788;45.124;38.966;2023-02-01T04:00:40;29.45;;;6.85;;
65202;SDS011;51788;45.124;38.966;2023-02-01T04:03:10;15.23;;;8.48;;
65202;SDS011;51788;45.124;38.966;2023-02-01T04:05:36;14.35;;;7.75;;
65202;SDS011;51788;45.124;38.966;2023-02-01T04:08:05;14.18;;;8.90;;
65202;SDS011;51788;45.124;38.966;2023-02-01T04:10:32;14.88;;;8.52;;
65202;SDS011;51788;45.124;38.966;2023-02-01T04:12:58;28.45;;;8.98;;
65202;SDS011;51788;45.124;38.966;2023-02-01T04:15:24;16.80;;;8.95;;
65202;SDS011;51788;45.124;38.966;2023-02-01T04:17:50;25.02;;;7.60;;
65202;SDS011;51788;45.124;38.966;2023-02-01T04:20:16;19.73;;;7.35;;
65202;SDS011;51788;45.124;38.966;2023-02-01T04:22:42;11.07;;;7.65;;
65202;SDS011;51788;45.124;38.966;2023-02-01T04:25:08;23.63;;;10.95;;
65202;SDS011;51788;45.124;38.966;2023-02-01T04:27:34;50.67;;;9.15;;
65202;SDS011;51788;45.124;38.966;2023-02-01T04:30:01;30.50;;;7.85;;
65202;SDS011;51788;45.124;38.966;2023-02-01T04:32:27;12.10;;;7.70;;
65202;SDS011;51788;45.124;38.966;2023-02-01T04:34:53;9.80;;;7.18;;
65202;SDS011;51788;45.124;38.966;2023-02-01T04:37:19;34.83;;;8.13;;
65202;SDS011;51788;45.124;38.966;2023-02-01T04:39:45;29.63;;;9.55;;
65202;SDS011;51788;45.124;38.966;2023-02-01T04:42:11;28.35;;;10.35;;
65202;SDS011;51788;45.124;38.966;2023-02-01T04:44:37;44.88;;;10.07;;
65202;SDS011;51788;45.124;38.966;2023-02-01T04:47:07;20.48;;;10.80;;
65202;SDS011;51788;45.124;38.966;2023-02-01T04:49:33;29.88;;;11.02;;
65202;SDS011;51788;45.124;38.966;2023-02-01T04:51:59;38.20;;;11.75;;
65202;SDS011;51788;45.124;38.966;2023-02-01T04:54:25;26.38;;;10.68;;
65202;SDS011;51788;45.124;38.966;2023-02-01T04:56:50;18.75;;;10.48;;
65202;SDS011;51788;45.124;38.966;2023-02-01T04:59:16;22.42;;;11.00;;
65202;SDS011;51788;45.124;38.966;2023-02-01T05:01:42;20.08;;;11.93;;
65202;SDS011;51788;45.124;38.966;2023-02-01T05:04:08;19.85;;;9.52;;
65202;SDS011;51788;45.124;38.966;2023-02-01T05:06:35;29.15;;;12.13;;
65202;SDS011;51788;45.124;38.966;2023-02-01T05:09:01;16.25;;;9.57;;
65202;SDS011;51788;45.124;38.966;2023-02-01T05:11:26;13.40;;;9.07;;
65202;SDS011;51788;45.124;38.966;2023-02-01T05:14:11;17.27;;;9.90;;
65202;SDS011;51788;45.124;38.966;2023-02-01T05:16:36;30.08;;;10.13;;
65202;SDS011;51788;45.124;38.966;2023-02-01T05:19:02;22.30;;;12.60;;
65202;SDS011;51788;45.124;38.966;2023-02-01T05:21:28;24.70;;;12.52;;
65202;SDS011;51788;45.124;38.966;2023-02-01T05:23:54;24.48;;;11.00;;
65202;SDS011;51788;45.124;38.966;2023-02-01T05:26:42;16.77;;;9.38;;
65202;SDS011;51788;45.124;38.966;2023-02-01T05:29:08;19.27;;;8.32;;
65202;SDS011;51788;45.124;38.966;2023-02-01T05:31:35;14.07;;;7.50;;
65202;SDS011;51788;45.124;38.966;2023-02-01T05:34:02;13.43;;;7.05;;
65202;SDS011;51788;45.124;38.966;2023-02-01T05:36:28;25.50;;;11.30;;
65202;SDS011;51788;45.124;38.966;2023-02-01T05:38:53;20.48;;;10.50;;
65202;SDS011;51788;45.124;38.966;2023-02-01T05:41:19;16.52;;;9.63;;
65202;SDS011;51788;45.124;38.966;2023-02-01T05:43:45;19.73;;;10.65;;
65202;SDS011;51788;45.124;38.966;2023-02-01T05:46:11;21.63;;;9.68;;
65202;SDS011;51788;45.124;38.966;2023-02-01T05:48:41;16.60;;;9.52;;
65202;SDS011;51788;45.124;38.966;2023-02-01T05:51:08;21.63;;;9.50;;
65202;SDS011;51788;45.124;38.966;2023-02-01T05:53:35;16.63;;;10.73;;
65202;SDS011;51788;45.124;38.966;2023-02-01T05:56:01;16.52;;;10.02;;
65202;SDS011;51788;45.124;38.966;2023-02-01T05:58:27;20.20;;;11.57;;
65202;SDS011;51788;45.124;38.966;2023-02-01T06:00:53;29.13;;;12.93;;
65202;SDS011;51788;45.124;38.966;2023-02-01T06:03:19;30.73;;;13.05;;
65202;SDS011;51788;45.124;38.966;2023-02-01T06:05:45;31.45;;;12.30;;
65202;SDS011;51788;45.124;38.966;2023-02-01T06:08:12;19.83;;;11.60;;
65202;SDS011;51788;45.124;38.966;2023-02-01T06:10:39;19.35;;;9.77;;
65202;SDS011;51788;45.124;38.966;2023-02-01T06:13:05;34.00;;;12.50;;
65202;SDS011;51788;45.124;38.966;2023-02-01T06:15:31;14.80;;;8.18;;
65202;SDS011;51788;45.124;38.966;2023-02-01T06:17:57;16.73;;;7.43;;
65202;SDS011;51788;45.124;38.966;2023-02-01T06:20:23;16.65;;;9.02;;
65202;SDS011;51788;45.124;38.966;2023-02-01T06:22:49;14.45;;;8.45;;
65202;SDS011;51788;45.124;38.966;2023-02-01T06:25:15;12.35;;;6.80;;
65202;SDS011;51788;45.124;38.966;2023-02-01T06:27:42;25.50;;;9.63;;
65202;SDS011;51788;45.124;38.966;2023-02-01T06:30:10;10.88;;;6.68;;
65202;SDS011;51788;45.124;38.966;2023-02-01T06:32:39;17.45;;;8.48;;
65202;SDS011;51788;45.124;38.966;2023-02-01T06:35:09;19.60;;;8.05;;
65202;SDS011;51788;45.124;38.966;2023-02-01T06:37:41;12.07;;;8.02;;
65202;SDS011;51788;45.124;38.966;2023-02-01T06:40:07;7.10;;;5.75;;
65202;SDS011;51788;45.124;38.966;2023-02-01T06:42:34;14.52;;;9.15;;
65202;SDS011;51788;45.124;38.966;2023-02-01T06:45:00;24.23;;;7.88;;
65202;SDS011;51788;45.124;38.966;2023-02-01T06:47:26;27.73;;;9.95;;
65202;SDS011;51788;45.124;38.966;2023-02-01T06:49:52;16.15;;;7.40;;
65202;SDS011;51788;45.124;38.966;2023-02-01T06:52:18;17.75;;;9.23;;
65202;SDS011;51788;45.124;38.966;2023-02-01T06:54:44;20.60;;;11.68;;
65202;SDS011;51788;45.124;38.966;2023-02-01T06:57:09;15.57;;;6.43;;
65202;SDS011;51788;45.124;38.966;2023-02-01T06:59:35;15.70;;;10.00;;
65202;SDS011;51788;45.124;38.966;2023-02-01T07:02:01;23.70;;;8.40;;
65202;SDS011;51788;45.124;38.966;2023-02-01T07:04:27;13.35;;;9.02;;
65202;SDS011;51788;45.124;38.966;2023-02-01T07:06:53;16.67;;;9.80;;
65202;SDS011;51788;45.124;38.966;2023-02-01T07:09:19;24.08;;;11.38;;
65202;SDS011;51788;45.124;38.966;2023-02-01T07:11:45;19.25;;;11.13;;
65202;SDS011;51788;45.124;38.966;2023-02-01T07:14:12;7.93;;;7.13;;
65202;SDS011;51788;45.124;38.966;2023-02-01T07:16:38;24.45;;;10.88;;
65202;SDS011;51788;45.124;38.966;2023-02-01T07:19:04;18.50;;;10.60;;
65202;SDS011;51788;45.124;38.966;2023-02-01T07:21:31;28.08;;;12.85;;
65202;SDS011;51788;45.124;38.966;2023-02-01T07:23:58;21.27;;;11.75;;
65202;SDS011;51788;45.124;38.966;2023-02-01T07:26:24;19.48;;;11.52;;
65202;SDS011;51788;45.124;38.966;2023-02-01T07:28:50;27.98;;;11.55;;
65202;SDS011;51788;45.124;38.966;2023-02-01T07:31:17;25.58;;;13.07;;
65202;SDS011;51788;45.124;38.966;2023-02-01T07:33:47;26.00;;;12.75;;
65202;SDS011;51788;45.124;38.966;2023-02-01T07:36:17;31.92;;;14.40;;
65202;SDS011;51788;45.124;38.966;2023-02-01T07:38:43;27.50;;;14.55;;
65202;SDS011;51788;45.124;38.966;2023-02-01T07:41:12;32.58;;;16.23;;
65202;SDS011;51788;45.124;38.966;2023-02-01T07:43:38;37.47;;;17.50;;
65202;SDS011;51788;45.124;38.966;2023-02-01T07:46:04;40.38;;;17.27;;
65202;SDS011;51788;45.124;38.966;2023-02-01T07:48:31;40.35;;;18.83;;
65202;SDS011;51788;45.124;38.966;2023-02-01T07:51:15;34.80;;;16.27;;
65202;SDS011;51788;45.124;38.966;2023-02-01T07:53:42;41.63;;;18.38;;
65202;SDS011;51788;45.124;38.966;2023-02-01T07:56:13;43.67;;;20.33;;
65202;SDS011;51788;45.124;38.966;2023-02-01T07:58:40;41.38;;;19.50;;
65202;SDS011;51788;45.124;38.966;2023-02-01T08:01:14;36.03;;;17.55;;
65202;SDS011;51788;45.124;38.966;2023-02-01T08:03:53;38.03;;;20.42;;
65202;SDS011;51788;45.124;38.966;2023-02-01T08:06:21;38.58;;;20.80;;
65202;SDS011;51788;45.124;38.966;2023-02-01T08:08:48;37.88;;;19.23;;
65202;SDS011;51788;45.124;38.966;2023-02-01T08:11:15;39.67;;;20.67;;
65202;SDS011;51788;45.124;38.966;2023-02-01T08:13:41;33.28;;;19.27;;
65202;SDS011;51788;45.124;38.966;2023-02-01T08:16:09;36.13;;;16.98;;
65202;SDS011;51788;45.124;38.966;2023-02-01T08:18:36;35.42;;;20.23;;
65202;SDS011;51788;45.124;38.966;2023-02-01T08:21:12;42.67;;;22.70;;
65202;SDS011;51788;45.124;38.966;2023-02-01T08:23:40;27.40;;;15.82;;
65202;SDS011;51788;45.124;38.966;2023-02-01T08:26:17;34.78;;;18.80;;
65202;SDS011;51788;45.124;38.966;2023-02-01T08:28:49;34.75;;;19.70;;
65202;SDS011;51788;45.124;38.966;2023-02-01T08:31:20;33.53;;;18.77;;
65202;SDS011;51788;45.124;38.966;2023-02-01T08:33:49;41.22;;;18.42;;
65202;SDS011;51788;45.124;38.966;2023-02-01T08:36:16;49.58;;;23.00;;
65202;SDS011;51788;45.124;38.966;2023-02-01T08:38:43;38.90;;;19.15;;
65202;SDS011;51788;45.124;38.966;2023-02-01T08:41:10;34.88;;;19.17;;
65202;SDS011;51788;45.124;38.966;2023-02-01T08:43:42;31.08;;;16.80;;
65202;SDS011;51788;45.124;38.966;2023-02-01T08:46:08;30.60;;;16.75;;
65202;SDS011;51788;45.124;38.966;2023-02-01T08:48:35;35.08;;;18.83;;
65202;SDS011;51788;45.124;38.966;2023-02-01T08:51:02;27.73;;;17.80;;
65202;SDS011;51788;45.124;38.966;2023-02-01T08:53:34;28.70;;;16.92;;
65202;SDS011;51788;45.124;38.966;2023-02-01T08:56:01;32.03;;;15.52;;
65202;SDS011;51788;45.124;38.966;2023-02-01T08:58:27;28.10;;;16.67;;
65202;SDS011;51788;45.124;38.966;2023-02-01T09:00:53;23.65;;;15.80;;
65202;SDS011;51788;45.124;38.966;2023-02-01T09:03:19;24.42;;;14.07;;
65202;SDS011;51788;45.124;38.966;2023-02-01T09:05:45;30.08;;;16.70;;
65202;SDS011;51788;45.124;38.966;2023-02-01T09:08:12;22.75;;;14.02;;
65202;SDS011;51788;45.124;38.966;2023-02-01T09:10:40;22.55;;;14.45;;
65202;SDS011;51788;45.124;38.966;2023-02-01T09:13:07;21.33;;;14.75;;
65202;SDS011;51788;45.124;38.966;2023-02-01T09:15:34;19.88;;;12.98;;
65202;SDS011;51788;45.124;38.966;2023-02-01T09:18:00;20.23;;;11.90;;
65202;SDS011;51788;45.124;38.966;2023-02-01T09:20:26;24.02;;;16.23;;
65202;SDS011;51788;45.124;38.966;2023-02-01T09:22:52;21.38;;;14.10;;
65202;SDS011;51788;45.124;38.966;2023-02-01T09:25:20;25.30;;;18.42;;
65202;SDS011;51788;45.124;38.966;2023-02-01T09:27:45;22.75;;;13.30;;
65202;SDS011;51788;45.124;38.966;2023-02-01T09:30:12;20.50;;;14.27;;
65202;SDS011;51788;45.124;38.966;2023-02-01T09:32:38;24.65;;;14.75;;
65202;SDS011;51788;45.124;38.966;2023-02-01T09:35:04;20.77;;;14.60;;
65202;SDS011;51788;45.124;38.966;2023-02-01T09:37:30;26.23;;;15.20;;
65202;SDS011;51788;45.124;38.966;2023-02-01T09:39:56;19.58;;;11.45;;
65202;SDS011;51788;45.124;38.966;2023-02-01T09:45:10;20.23;;;13.95;;
65202;SDS011;51788;45.124;38.966;2023-02-01T09:47:47;25.77;;;17.83;;
65202;SDS011;51788;45.124;38.966;2023-02-01T09:50:22;24.63;;;14.27;;
65202;SDS011;51788;45.124;38.966;2023-02-01T10:00:59;17.03;;;13.50;;
65202;SDS011;51788;45.124;38.966;2023-02-01T10:03:30;22.52;;;15.15;;
65202;SDS011;51788;45.124;38.966;2023-02-01T10:14:17;16.73;;;10.90;;
65202;SDS011;51788;45.124;38.966;2023-02-01T10:22:32;18.10;;;12.80;;
65202;SDS011;51788;45.124;38.966;2023-02-01T10:27:40;18.95;;;14.43;;
65202;SDS011;51788;45.124;38.966;2023-02-01T10:30:17;27.40;;;14.60;;
65202;SDS011;51788;45.124;38.966;2023-02-01T10:36:01;20.65;;;12.73;;
65202;SDS011;51788;45.124;38.966;2023-02-01T10:38:35;20.40;;;12.38;;
65202;SDS011;51788;45.124;38.966;2023-02-01T10:41:23;31.25;;;15.43;;
65202;SDS011;51788;45.124;38.966;2023-02-01T10:43:50;20.75;;;12.65;;
65202;SDS011;51788;45.124;38.966;2023-02-01T10:46:20;26.75;;;13.98;;
65202;SDS011;51788;45.124;38.966;2023-02-01T10:48:48;27.50;;;11.57;;
65202;SDS011;51788;45.124;38.966;2023-02-01T10:51:20;22.10;;;14.00;;
65202;SDS011;51788;45.124;38.966;2023-02-01T10:56:27;26.95;;;16.35;;
65202;SDS011;51788;45.124;38.966;2023-02-01T10:59:04;23.52;;;15.38;;
65202;SDS011;51788;45.124;38.966;2023-02-01T11:01:36;24.17;;;12.90;;
65202;SDS011;51788;45.124;38.966;2023-02-01T11:04:26;20.50;;;13.82;;
65202;SDS011;51788;45.124;38.966;2023-02-01T11:09:32;17.95;;;12.10;;
65202;SDS011;51788;45.124;38.966;2023-02-01T11:12:05;24.65;;;16.85;;
65202;SDS011;51788;45.124;38.966;2023-02-01T11:14:46;20.90;;;14.68;;
65202;SDS011;51788;45.124;38.966;2023-02-01T11:19:56;24.02;;;13.07;;
65202;SDS011;51788;45.124;38.966;2023-02-01T11:22:26;21.10;;;12.68;;
65202;SDS011;51788;45.124;38.966;2023-02-01T11:24:54;21.05;;;13.82;;
65202;SDS011;51788;45.124;38.966;2023-02-01T11:27:21;18.15;;;12.07;;
65202;SDS011;51788;45.124;38.966;2023-02-01T11:29:52;22.38;;;13.20;;
65202;SDS011;51788;45.124;38.966;2023-02-01T11:32:25;22.20;;;12.80;;
65202;SDS011;51788;45.124;38.966;2023-02-01T11:34:53;16.23;;;11.48;;
65202;SDS011;51788;45.124;38.966;2023-02-01T11:37:34;24.42;;;15.50;;
65202;SDS011;51788;45.124;38.966;2023-02-01T11:42:59;20.42;;;12.75;;
65202;SDS011;51788;45.124;38.966;2023-02-01T11:45:32;19.45;;;11.57;;
65202;SDS011;51788;45.124;38.966;2023-02-01T11:48:00;15.55;;;10.85;;
65202;SDS011;51788;45.124;38.966;2023-02-01T11:53:18;18.77;;;11.73;;
65202;SDS011;51788;45.124;38.966;2023-02-01T12:05:01;20.42;;;11.77;;
65202;SDS011;51788;45.124;38.966;2023-02-01T12:21:47;21.40;;;14.00;;
65202;SDS011;51788;45.124;38.966;2023-02-01T12:30:07;21.35;;;11.65;;
65202;SDS011;51788;45.124;38.966;2023-02-01T12:38:27;19.58;;;10.50;;
65202;SDS011;51788;45.124;38.966;2023-02-01T12:41:17;19.00;;;11.43;;
65202;SDS011;51788;45.124;38.966;2023-02-01T12:44:04;21.58;;;12.27;;
65202;SDS011;51788;45.124;38.966;2023-02-01T12:46:49;18.48;;;11.27;;
65202;SDS011;51788;45.124;38.966;2023-02-01T12:49:21;21.05;;;12.30;;
65202;SDS011;51788;45.124;38.966;2023-02-01T12:51:59;12.10;;;8.88;;
65202;SDS011;51788;45.124;38.966;2023-02-01T12:57:26;13.32;;;9.38;;
65202;SDS011;51788;45.124;38.966;2023-02-01T13:00:01;15.27;;;9.57;;
65202;SDS011;51788;45.124;38.966;2023-02-01T13:02:44;14.65;;;9.65;;
65202;SDS011;51788;45.124;38.966;2023-02-01T13:05:24;23.17;;;10.23;;
65202;SDS011;51788;45.124;38.966;2023-02-01T13:10:48;20.77;;;9.30;;
65202;SDS011;51788;45.124;38.966;2023-02-01T13:16:13;14.45;;;10.27;;
65202;SDS011;51788;45.124;38.966;2023-02-01T13:21:16;13.88;;;8.50;;
65202;SDS011;51788;45.124;38.966;2023-02-01T13:24:04;14.63;;;9.70;;
65202;SDS011;51788;45.124;38.966;2023-02-01T13:26:30;17.42;;;9.48;;
65202;SDS011;51788;45.124;38.966;2023-02-01T13:40:16;20.05;;;9.48;;
65202;SDS011;51788;45.124;38.966;2023-02-01T13:43:18;15.63;;;9.45;;
65202;SDS011;51788;45.124;38.966;2023-02-01T13:45:52;10.52;;;8.23;;
65202;SDS011;51788;45.124;38.966;2023-02-01T13:50:54;13.80;;;9.63;;
65202;SDS011;51788;45.124;38.966;2023-02-01T13:53:25;15.00;;;10.27;;
65202;SDS011;51788;45.124;38.966;2023-02-01T13:56:18;10.98;;;7.78;;
65202;SDS011;51788;45.124;38.966;2023-02-01T13:58:46;13.52;;;9.43;;
65202;SDS011;51788;45.124;38.966;2023-02-01T14:04:02;14.23;;;9.25;;
65202;SDS011;51788;45.124;38.966;2023-02-01T14:06:49;21.27;;;9.10;;
65202;SDS011;51788;45.124;38.966;2023-02-01T14:09:30;14.75;;;9.95;;
65202;SDS011;51788;45.124;38.966;2023-02-01T14:11:58;15.38;;;11.32;;
65202;SDS011;51788;45.124;38.966;2023-02-01T14:15:21;15.10;;;10.23;;
65202;SDS011;51788;45.124;38.966;2023-02-01T14:17:52;16.02;;;10.52;;
65202;SDS011;51788;45.124;38.966;2023-02-01T14:20:51;22.55;;;9.75;;
65202;SDS011;51788;45.124;38.966;2023-02-01T14:23:17;16.60;;;11.23;;
65202;SDS011;51788;45.124;38.966;2023-02-01T14:25:47;19.98;;;11.55;;
65202;SDS011;51788;45.124;38.966;2023-02-01T14:28:27;19.80;;;10.40;;
65202;SDS011;51788;45.124;38.966;2023-02-01T14:30:54;23.42;;;12.20;;
65202;SDS011;51788;45.124;38.966;2023-02-01T14:33:26;26.85;;;16.02;;
65202;SDS011;51788;45.124;38.966;2023-02-01T14:36:14;24.85;;;14.45;;
65202;SDS011;51788;45.124;38.966;2023-02-01T14:38:40;24.48;;;13.40;;
65202;SDS011;51788;45.124;38.966;2023-02-01T14:41:23;22.02;;;13.77;;
65202;SDS011;51788;45.124;38.966;2023-02-01T14:52:44;21.98;;;11.52;;
65202;SDS011;51788;45.124;38.966;2023-02-01T14:55:24;24.88;;;13.15;;
65202;SDS011;51788;45.124;38.966;2023-02-01T14:58:50;27.02;;;16.40;;
65202;SDS011;51788;45.124;38.966;2023-02-01T15:01:19;77.97;;;33.58;;
65202;SDS011;51788;45.124;38.966;2023-02-01T15:03:53;66.32;;;29.83;;
65202;SDS011;51788;45.124;38.966;2023-02-01T15:09:10;53.60;;;26.58;;
65202;SDS011;51788;45.124;38.966;2023-02-01T15:11:54;57.72;;;29.17;;
65202;SDS011;51788;45.124;38.966;2023-02-01T15:14:23;40.85;;;19.38;;
65202;SDS011;51788;45.124;38.966;2023-02-01T15:16:49;29.52;;;17.55;;
65202;SDS011;51788;45.124;38.966;2023-02-01T15:19:23;32.70;;;16.25;;
65202;SDS011;51788;45.124;38.966;2023-02-01T15:21:51;25.42;;;13.40;;
65202;SDS011;51788;45.124;38.966;2023-02-01T15:24:21;28.77;;;16.23;;
65202;SDS011;51788;45.124;38.966;2023-02-01T15:26:49;23.20;;;14.45;;
65202;SDS011;51788;45.124;38.966;2023-02-01T15:29:17;25.38;;;14.77;;
65202;SDS011;51788;45.124;38.966;2023-02-01T15:31:46;21.92;;;14.75;;
65202;SDS011;51788;45.124;38.966;2023-02-01T15:34:17;23.27;;;14.60;;
65202;SDS011;51788;45.124;38.966;2023-02-01T15:36:44;24.92;;;14.52;;
65202;SDS011;51788;45.124;38.966;2023-02-01T15:39:12;25.13;;;13.65;;
65202;SDS011;51788;45.124;38.966;2023-02-01T15:41:47;23.02;;;14.40;;
65202;SDS011;51788;45.124;38.966;2023-02-01T15:46:48;30.30;;;17.45;;
65202;SDS011;51788;45.124;38.966;2023-02-01T15:51:52;33.47;;;19.70;;
65202;SDS011;51788;45.124;38.966;2023-02-01T15:54:22;38.55;;;20.90;;
65202;SDS011;51788;45.124;38.966;2023-02-01T15:57:07;25.40;;;14.18;;
65202;SDS011;51788;45.124;38.966;2023-02-01T15:59:43;21.75;;;13.30;;
65202;SDS011;51788;45.124;38.966;2023-02-01T16:02:51;28.25;;;18.02;;
65202;SDS011;51788;45.124;38.966;2023-02-01T16:05:29;25.08;;;14.02;;
65202;SDS011;51788;45.124;38.966;2023-02-01T16:08:04;15.68;;;11.45;;
65202;SDS011;51788;45.124;38.966;2023-02-01T16:10:39;22.30;;;14.70;;
65202;SDS011;51788;45.124;38.966;2023-02-01T16:13:07;29.25;;;13.77;;
65202;SDS011;51788;45.124;38.966;2023-02-01T16:15:33;30.10;;;16.05;;
65202;SDS011;51788;45.124;38.966;2023-02-01T16:17:59;18.05;;;12.75;;
65202;SDS011;51788;45.124;38.966;2023-02-01T16:20:25;15.30;;;9.88;;
65202;SDS011;51788;45.124;38.966;2023-02-01T16:22:51;22.42;;;13.10;;
65202;SDS011;51788;45.124;38.966;2023-02-01T16:25:17;18.10;;;12.95;;
65202;SDS011;51788;45.124;38.966;2023-02-01T16:27:43;17.50;;;11.10;;
65202;SDS011;51788;45.124;38.966;2023-02-01T16:30:09;15.50;;;9.80;;
65202;SDS011;51788;45.124;38.966;2023-02-01T16:32:36;20.75;;;11.95;;
65202;SDS011;51788;45.124;38.966;2023-02-01T16:35:16;11.07;;;7.85;;
65202;SDS011;51788;45.124;38.966;2023-02-01T16:37:48;9.50;;;7.93;;
65202;SDS011;51788;45.124;38.966;2023-02-01T16:40:14;14.20;;;10.57;;
65202;SDS011;51788;45.124;38.966;2023-02-01T16:42:42;11.60;;;7.35;;
65202;SDS011;51788;45.124;38.966;2023-02-01T16:45:08;17.67;;;10.95;;
65202;SDS011;51788;45.124;38.966;2023-02-01T16:47:36;16.33;;;10.02;;
65202;SDS011;51788;45.124;38.966;2023-02-01T16:50:03;23.17;;;14.25;;
65202;SDS011;51788;45.124;38.966;2023-02-01T16:52:30;20.85;;;12.38;;
65202;SDS011;51788;45.124;38.966;2023-02-01T16:54:56;17.88;;;12.23;;
65202;SDS011;51788;45.124;38.966;2023-02-01T16:57:22;17.17;;;11.50;;
65202;SDS011;51788;45.124;38.966;2023-02-01T16:59:49;11.48;;;9.00;;
65202;SDS011;51788;45.124;38.966;2023-02-01T17:02:16;17.77;;;9.65;;
65202;SDS011;51788;45.124;38.966;2023-02-01T17:04:47;23.15;;;13.23;;
65202;SDS011;51788;45.124;38.966;2023-02-01T17:07:17;22.52;;;12.55;;
65202;SDS011;51788;45.124;38.966;2023-02-01T17:09:47;25.88;;;9.68;;
65202;SDS011;51788;45.124;38.966;2023-02-01T17:12:20;18.40;;;12.07;;